TAF Text Data
IDs:
Format:
Raw Decoded Include METAR

Data at: 1148 UTC 23 Jun 2021

KORH 231128Z 2312/2412 31010KT P6SM SKC
  FM232200 28005KT P6SM FEW250